createdAt,value
2022-10-09T00:02:34.422Z,11.40
2022-10-09T00:05:23.670Z,11.40
2022-10-09T00:08:16.440Z,11.40
2022-10-09T00:32:25.171Z,11.30
2022-10-09T00:35:12.677Z,11.30
2022-10-09T00:37:59.742Z,11.20
2022-10-09T00:47:59.520Z,11.30
2022-10-09T00:50:52.192Z,11.20
2022-10-09T00:53:40.389Z,11.10
2022-10-09T01:22:40.489Z,11.10
2022-10-09T01:29:14.358Z,11.00
2022-10-09T01:32:27.499Z,10.80
2022-10-09T01:35:40.832Z,10.80
2022-10-09T01:38:46.090Z,10.70
2022-10-09T01:41:41.590Z,10.70
2022-10-09T01:44:50.335Z,10.80
2022-10-09T01:47:58.463Z,10.60
2022-10-09T01:51:00.724Z,10.70
2022-10-09T01:54:04.013Z,10.60
2022-10-09T01:57:10.697Z,10.60
2022-10-09T02:00:10.700Z,10.50
2022-10-09T02:03:49.458Z,10.50
2022-10-09T02:13:50.839Z,10.30
2022-10-09T02:25:01.840Z,10.30
2022-10-09T02:27:49.559Z,10.30
2022-10-09T02:31:11.200Z,10.30
2022-10-09T02:34:07.386Z,10.30
2022-10-09T02:36:54.922Z,10.20
2022-10-09T02:39:43.040Z,10.30
2022-10-09T02:42:38.948Z,10.20
2022-10-09T02:45:26.394Z,10.30
2022-10-09T02:48:13.862Z,10.20
2022-10-09T02:51:01.405Z,10.20
2022-10-09T02:53:48.902Z,10.30
2022-10-09T02:56:40.196Z,10.20
2022-10-09T02:59:33.573Z,10.20
2022-10-09T03:02:28.466Z,10.20
2022-10-09T03:05:29.411Z,10.20
2022-10-09T03:11:34.053Z,10.10
2022-10-09T03:14:44.638Z,10.20
2022-10-09T03:17:38.187Z,10.10
2022-10-09T03:20:31.045Z,10.00
2022-10-09T03:23:19.801Z,10.00
2022-10-09T03:26:24.233Z,10.00
2022-10-09T03:29:21.689Z,10.00
2022-10-09T03:32:14.560Z,10.00
2022-10-09T03:35:04.760Z,10.00
2022-10-09T03:37:58.831Z,10.10
2022-10-09T03:40:55.036Z,10.20
2022-10-09T03:44:13.503Z,10.20
2022-10-09T03:47:27.665Z,10.10
2022-10-09T03:50:18.855Z,10.00
2022-10-09T03:56:29.356Z,9.90
2022-10-09T03:59:37.876Z,10.00
2022-10-09T04:02:35.944Z,10.00
2022-10-09T04:05:30.944Z,9.90
2022-10-09T04:08:22.377Z,9.90
2022-10-09T04:11:14.419Z,9.90
2022-10-09T04:14:19.352Z,9.90
2022-10-09T04:17:17.483Z,9.80
2022-10-09T04:20:17.341Z,9.80
2022-10-09T04:23:21.446Z,9.80
2022-10-09T04:26:16.870Z,9.60
2022-10-09T04:29:06.224Z,9.60
2022-10-09T04:32:24.058Z,9.60
2022-10-09T04:38:53.213Z,9.90
2022-10-09T04:41:47.591Z,9.80
2022-10-09T04:44:41.704Z,9.80
2022-10-09T04:56:42.046Z,9.90
2022-10-09T04:59:29.243Z,9.70
2022-10-09T05:02:16.724Z,9.90
2022-10-09T05:05:04.473Z,9.80
2022-10-09T05:07:51.600Z,9.80
2022-10-09T05:10:39.181Z,9.90
2022-10-09T05:13:29.732Z,9.80
2022-10-09T05:16:20.024Z,9.90
2022-10-09T05:19:07.555Z,9.70
2022-10-09T05:21:55.025Z,9.70
2022-10-09T05:24:42.423Z,9.60
2022-10-09T05:27:29.957Z,9.80
2022-10-09T05:30:17.428Z,9.80
2022-10-09T05:33:04.920Z,9.70
2022-10-09T05:35:58.266Z,9.70
2022-10-09T05:38:45.922Z,9.80
2022-10-09T05:41:33.343Z,9.70
2022-10-09T05:44:20.509Z,9.80
2022-10-09T05:47:08.159Z,9.80
2022-10-09T05:49:56.030Z,9.70
2022-10-09T05:52:43.998Z,9.70
2022-10-09T05:55:31.540Z,9.60
2022-10-09T06:04:22.741Z,9.50
2022-10-09T06:07:23.018Z,9.60
2022-10-09T06:10:15.103Z,9.60
2022-10-09T06:16:08.496Z,9.50
2022-10-09T06:19:05.687Z,9.50
2022-10-09T06:22:28.546Z,9.60
2022-10-09T06:25:57.584Z,9.50
2022-10-09T06:28:52.965Z,9.60
2022-10-09T06:31:45.116Z,9.50
2022-10-09T06:34:42.736Z,9.60
2022-10-09T06:40:58.371Z,9.70
2022-10-09T06:44:00.232Z,9.60
2022-10-09T06:46:54.405Z,9.80
2022-10-09T06:49:47.873Z,9.70
2022-10-09T06:52:37.239Z,10.00
2022-10-09T06:55:29.364Z,9.90
2022-10-09T06:58:23.233Z,9.90
2022-10-09T07:04:49.617Z,10.00
2022-10-09T07:08:05.188Z,10.10
2022-10-09T07:10:55.562Z,10.20
2022-10-09T07:13:50.691Z,10.20
2022-10-09T07:17:09.849Z,10.30
2022-10-09T07:24:39.528Z,10.50
2022-10-09T07:30:56.132Z,10.90
2022-10-09T07:33:59.688Z,11.10
2022-10-09T07:36:54.023Z,11.20
2022-10-09T07:40:31.681Z,11.20
2022-10-09T08:13:54.644Z,12.70
2022-10-09T08:16:49.665Z,12.80
2022-10-09T08:41:06.535Z,13.80
2022-10-09T08:44:10.136Z,14.10
2022-10-09T08:47:25.959Z,14.30
2022-10-09T08:50:33.463Z,14.20
2022-10-09T08:53:37.737Z,14.20
2022-10-09T08:56:27.789Z,14.00
2022-10-09T08:59:24.757Z,14.50
2022-10-09T09:02:22.439Z,14.60
2022-10-09T09:05:33.827Z,14.80
2022-10-09T09:09:18.804Z,14.70
2022-10-09T09:12:49.609Z,14.70
2022-10-09T09:15:46.715Z,15.60
2022-10-09T09:19:00.263Z,15.70
2022-10-09T09:22:02.421Z,15.70
2022-10-09T09:24:57.211Z,15.60
2022-10-09T09:27:45.755Z,15.50
2022-10-09T09:30:44.730Z,15.60
2022-10-09T09:33:52.583Z,15.40
2022-10-09T09:36:58.532Z,15.70
2022-10-09T09:43:00.686Z,15.60
2022-10-09T09:45:56.854Z,15.70
2022-10-09T09:48:50.868Z,15.80
2022-10-09T09:51:38.899Z,15.70
2022-10-09T09:54:29.335Z,15.30
2022-10-09T09:57:32.171Z,15.40
2022-10-09T10:00:23.384Z,15.60
2022-10-09T10:03:17.993Z,15.60
2022-10-09T10:06:29.662Z,15.50
2022-10-09T10:09:19.678Z,15.50
2022-10-09T10:12:19.286Z,15.90
2022-10-09T10:15:42.922Z,15.80
2022-10-09T10:18:40.283Z,16.20
2022-10-09T10:21:39.219Z,16.40
2022-10-09T10:24:44.231Z,16.60
2022-10-09T10:27:45.396Z,16.60
2022-10-09T10:30:39.165Z,16.80
2022-10-09T10:33:44.309Z,16.70
2022-10-09T10:36:35.488Z,16.50
2022-10-09T11:49:32.317Z,18.40
2022-10-09T11:52:53.189Z,18.50
2022-10-09T11:55:55.965Z,19.50
2022-10-09T11:59:38.985Z,19.50
2022-10-09T12:02:37.870Z,19.40
2022-10-09T12:05:46.356Z,19.30
2022-10-09T12:12:09.388Z,19.50
2022-10-09T12:15:01.505Z,19.60
2022-10-09T12:18:03.838Z,19.80
2022-10-09T12:20:58.503Z,19.40
2022-10-09T12:23:52.667Z,19.00
2022-10-09T12:26:42.124Z,19.60
2022-10-09T12:39:47.721Z,19.90
2022-10-09T12:42:40.508Z,19.30
2022-10-09T12:45:50.886Z,19.50
2022-10-09T13:09:34.540Z,20.40
2022-10-09T13:12:26.229Z,20.80
2022-10-09T13:15:35.338Z,20.30
2022-10-09T13:18:23.191Z,20.20
2022-10-09T13:24:23.152Z,20.40
2022-10-09T13:27:14.482Z,19.80
2022-10-09T13:30:02.211Z,20.40
2022-10-09T13:42:16.901Z,20.30
2022-10-09T13:57:31.927Z,19.90
2022-10-09T14:00:57.577Z,20.00
2022-10-09T14:04:17.710Z,19.90
2022-10-09T14:07:22.709Z,20.20
2022-10-09T14:10:21.692Z,20.00
2022-10-09T14:13:19.411Z,20.20
2022-10-09T14:16:27.315Z,20.60
2022-10-09T14:19:28.034Z,20.80
2022-10-09T14:22:42.412Z,20.70
2022-10-09T15:38:29.958Z,19.70
2022-10-09T15:47:13.624Z,19.80
2022-10-09T15:50:03.787Z,19.70
2022-10-09T15:52:51.170Z,19.70
2022-10-09T15:55:38.982Z,19.60
2022-10-09T15:58:26.125Z,19.50
2022-10-09T16:13:27.876Z,17.60
2022-10-09T16:26:03.348Z,17.00
2022-10-09T16:28:52.240Z,17.00
2022-10-09T16:31:39.924Z,16.90
2022-10-09T16:34:27.177Z,16.70
2022-10-09T16:44:15.317Z,16.70
2022-10-09T16:47:44.643Z,16.60
2022-10-09T16:50:34.811Z,16.60
2022-10-09T16:53:40.623Z,16.10
2022-10-09T16:56:47.969Z,16.10
2022-10-09T16:59:36.839Z,16.10
2022-10-09T17:03:24.541Z,15.90
2022-10-09T17:26:54.513Z,15.60
2022-10-09T17:29:50.560Z,15.70
2022-10-09T17:35:56.550Z,15.50
2022-10-09T17:38:50.438Z,15.50
2022-10-09T17:44:55.910Z,15.40
2022-10-09T17:47:43.651Z,15.30
2022-10-09T17:50:31.128Z,15.30
2022-10-09T17:53:19.112Z,15.30
2022-10-09T17:56:06.189Z,15.20
2022-10-09T18:04:59.860Z,15.10
2022-10-09T18:07:47.877Z,15.00
2022-10-09T18:11:37.836Z,15.00
2022-10-09T18:18:54.821Z,14.90
2022-10-09T18:26:48.907Z,14.80
2022-10-09T18:29:42.274Z,14.70
2022-10-09T18:39:14.414Z,14.80
2022-10-09T18:42:29.028Z,14.70
2022-10-09T19:37:55.198Z,14.10
2022-10-09T19:40:43.903Z,14.00
2022-10-09T19:57:31.387Z,13.90
2022-10-09T20:00:19.198Z,13.80
2022-10-09T20:03:06.696Z,13.80
2022-10-09T20:05:54.155Z,13.80
2022-10-09T20:08:42.648Z,13.70
2022-10-09T20:18:04.092Z,13.60
2022-10-09T20:20:51.516Z,13.60
2022-10-09T20:23:47.294Z,13.60
2022-10-09T20:26:43.149Z,13.70
2022-10-09T20:29:31.001Z,13.60
2022-10-09T20:32:36.799Z,13.60
2022-10-09T20:39:49.112Z,13.50
2022-10-09T20:42:36.625Z,13.50
2022-10-09T20:45:23.731Z,13.40
2022-10-09T20:48:11.705Z,13.30
2022-10-09T20:51:17.735Z,13.40
2022-10-09T20:57:36.367Z,13.30
2022-10-09T21:00:59.911Z,13.20
2022-10-09T21:03:52.205Z,13.30
2022-10-09T21:09:44.241Z,13.20
2022-10-09T21:35:02.064Z,12.90
2022-10-09T21:37:50.210Z,12.90
2022-10-09T21:40:37.657Z,12.90
2022-10-09T21:43:25.091Z,12.80
2022-10-09T21:46:12.152Z,12.70
2022-10-09T21:49:02.268Z,12.70
2022-10-09T21:51:51.851Z,12.70
2022-10-09T21:54:51.464Z,12.80
2022-10-09T21:57:38.555Z,12.60
2022-10-09T22:00:26.014Z,12.60
2022-10-09T22:03:13.460Z,12.60
2022-10-09T22:06:09.374Z,12.60
2022-10-09T22:12:13.650Z,12.60
2022-10-09T22:15:01.174Z,12.60
2022-10-09T22:17:49.530Z,12.50
2022-10-09T22:20:41.266Z,12.50
2022-10-09T22:24:05.995Z,12.50
2022-10-09T22:26:53.098Z,12.40
2022-10-09T22:29:40.576Z,12.30
2022-10-09T22:32:28.038Z,12.30
2022-10-09T22:35:27.409Z,12.40
2022-10-09T22:38:41.542Z,12.40
2022-10-09T22:41:30.155Z,12.50
2022-10-09T22:44:17.534Z,12.50
2022-10-09T22:47:05.006Z,12.50
2022-10-09T22:50:19.496Z,12.30
2022-10-09T22:57:19.088Z,12.30
2022-10-09T23:00:07.161Z,12.40
2022-10-09T23:28:29.783Z,12.30
2022-10-09T23:32:06.022Z,12.20
2022-10-09T23:34:54.804Z,12.30
2022-10-09T23:37:43.227Z,12.30
2022-10-09T23:40:30.749Z,12.20
2022-10-09T23:43:18.187Z,12.10
2022-10-09T23:50:41.550Z,12.10
2022-10-09T23:57:11.826Z,12.00
2022-10-09T23:59:59.329Z,12.10
